sensor_id;sensor_type;location;lat;lon;timestamp;pressure;altitude;pressure_sealevel;temperature;humidity
86299;BME280;76956;50.530;8.312;2024-03-29T00:00:22;98278.25;;;4.56;77.48
86299;BME280;76956;50.530;8.312;2024-03-29T00:01:23;98266.66;;;4.52;77.84
86299;BME280;76956;50.530;8.312;2024-03-29T00:02:24;98274.38;;;4.53;78.43
86299;BME280;76956;50.530;8.312;2024-03-29T00:03:28;98278.69;;;4.51;77.78
86299;BME280;76956;50.530;8.312;2024-03-29T00:04:29;98270.19;;;4.45;78.00
86299;BME280;76956;50.530;8.312;2024-03-29T00:05:30;98271.41;;;4.41;78.16
86299;BME280;76956;50.530;8.312;2024-03-29T00:06:31;98272.19;;;4.41;78.05
86299;BME280;76956;50.530;8.312;2024-03-29T00:07:32;98277.56;;;4.45;77.95
86299;BME280;76956;50.530;8.312;2024-03-29T00:08:32;98279.97;;;4.39;77.57
86299;BME280;76956;50.530;8.312;2024-03-29T00:09:33;98278.50;;;4.31;78.16
86299;BME280;76956;50.530;8.312;2024-03-29T00:10:34;98285.84;;;4.34;78.27
86299;BME280;76956;50.530;8.312;2024-03-29T00:11:35;98282.31;;;4.37;78.05
86299;BME280;76956;50.530;8.312;2024-03-29T00:12:35;98283.84;;;4.38;78.18
86299;BME280;76956;50.530;8.312;2024-03-29T00:13:36;98279.19;;;4.39;78.29
86299;BME280;76956;50.530;8.312;2024-03-29T00:14:37;98275.28;;;4.40;78.05
86299;BME280;76956;50.530;8.312;2024-03-29T00:15:38;98275.28;;;4.40;78.46
86299;BME280;76956;50.530;8.312;2024-03-29T00:16:39;98272.28;;;4.34;78.27
86299;BME280;76956;50.530;8.312;2024-03-29T00:17:39;98262.22;;;4.31;78.57
86299;BME280;76956;50.530;8.312;2024-03-29T00:18:40;98261.06;;;4.29;79.29
86299;BME280;76956;50.530;8.312;2024-03-29T00:19:41;98253.69;;;4.29;78.85
86299;BME280;76956;50.530;8.312;2024-03-29T00:20:42;98249.84;;;4.27;78.75
86299;BME280;76956;50.530;8.312;2024-03-29T00:21:42;98248.28;;;4.26;78.29
86299;BME280;76956;50.530;8.312;2024-03-29T00:22:43;98241.38;;;4.18;80.11
86299;BME280;76956;50.530;8.312;2024-03-29T00:23:44;98235.97;;;4.18;79.54
86299;BME280;76956;50.530;8.312;2024-03-29T00:24:45;98244.84;;;4.22;79.19
86299;BME280;76956;50.530;8.312;2024-03-29T00:25:47;98247.56;;;4.22;78.49
86299;BME280;76956;50.530;8.312;2024-03-29T00:26:48;98244.44;;;4.23;78.56
86299;BME280;76956;50.530;8.312;2024-03-29T00:27:49;98240.50;;;4.28;79.00
86299;BME280;76956;50.530;8.312;2024-03-29T00:28:50;98230.84;;;4.27;79.01
86299;BME280;76956;50.530;8.312;2024-03-29T00:29:51;98226.22;;;4.24;78.67
86299;BME280;76956;50.530;8.312;2024-03-29T00:30:55;98230.53;;;4.18;79.43
86299;BME280;76956;50.530;8.312;2024-03-29T00:31:55;98236.78;;;4.15;79.32
86299;BME280;76956;50.530;8.312;2024-03-29T00:32:56;98239.13;;;4.13;79.83
86299;BME280;76956;50.530;8.312;2024-03-29T00:34:02;98240.66;;;4.14;79.75
86299;BME280;76956;50.530;8.312;2024-03-29T00:35:03;98236.00;;;4.14;79.09
86299;BME280;76956;50.530;8.312;2024-03-29T00:36:04;98235.22;;;4.14;78.79
86299;BME280;76956;50.530;8.312;2024-03-29T00:37:05;98231.75;;;4.13;79.60
86299;BME280;76956;50.530;8.312;2024-03-29T00:38:05;98228.28;;;4.13;78.87
86299;BME280;76956;50.530;8.312;2024-03-29T00:39:06;98224.03;;;4.08;79.54
86299;BME280;76956;50.530;8.312;2024-03-29T00:40:11;98221.31;;;4.08;78.62
86299;BME280;76956;50.530;8.312;2024-03-29T00:41:12;98225.25;;;4.04;79.68
86299;BME280;76956;50.530;8.312;2024-03-29T00:42:13;98217.09;;;4.04;79.27
86299;BME280;76956;50.530;8.312;2024-03-29T00:43:15;98209.03;;;3.96;78.97
86299;BME280;76956;50.530;8.312;2024-03-29T00:44:16;98211.75;;;3.96;78.90
86299;BME280;76956;50.530;8.312;2024-03-29T00:45:17;98218.03;;;3.90;79.10
86299;BME280;76956;50.530;8.312;2024-03-29T00:46:18;98214.97;;;3.84;79.98
86299;BME280;76956;50.530;8.312;2024-03-29T00:47:19;98216.91;;;3.84;80.51
86299;BME280;76956;50.530;8.312;2024-03-29T00:48:19;98216.53;;;3.85;80.21
86299;BME280;76956;50.530;8.312;2024-03-29T00:49:21;98220.75;;;3.86;79.81
86299;BME280;76956;50.530;8.312;2024-03-29T00:50:22;98219.59;;;3.87;81.31
86299;BME280;76956;50.530;8.312;2024-03-29T00:51:22;98218.41;;;3.88;81.36
86299;BME280;76956;50.530;8.312;2024-03-29T00:52:23;98222.31;;;3.87;80.73
86299;BME280;76956;50.530;8.312;2024-03-29T00:53:24;98232.38;;;3.90;80.94
86299;BME280;76956;50.530;8.312;2024-03-29T00:54:25;98241.66;;;3.89;80.22
86299;BME280;76956;50.530;8.312;2024-03-29T00:55:26;98242.41;;;3.93;80.35
86299;BME280;76956;50.530;8.312;2024-03-29T00:56:26;98242.78;;;3.95;80.11
86299;BME280;76956;50.530;8.312;2024-03-29T00:57:27;98242.41;;;3.93;79.95
86299;BME280;76956;50.530;8.312;2024-03-29T00:58:28;98252.50;;;3.93;80.06
86299;BME280;76956;50.530;8.312;2024-03-29T00:59:29;98242.03;;;3.91;80.27
86299;BME280;76956;50.530;8.312;2024-03-29T01:00:30;98247.81;;;3.93;80.56
86299;BME280;76956;50.530;8.312;2024-03-29T01:01:31;98245.13;;;3.93;79.74
86299;BME280;76956;50.530;8.312;2024-03-29T01:02:31;98249.38;;;3.94;80.44
86299;BME280;76956;50.530;8.312;2024-03-29T01:03:32;98245.53;;;3.92;81.20
86299;BME280;76956;50.530;8.312;2024-03-29T01:04:33;98239.69;;;3.93;80.27
86299;BME280;76956;50.530;8.312;2024-03-29T01:05:34;98241.25;;;3.94;79.90
86299;BME280;76956;50.530;8.312;2024-03-29T01:06:34;98240.06;;;3.95;80.24
86299;BME280;76956;50.530;8.312;2024-03-29T01:07:35;98242.38;;;3.97;80.66
86299;BME280;76956;50.530;8.312;2024-03-29T01:08:36;98253.19;;;4.01;80.01
86299;BME280;76956;50.530;8.312;2024-03-29T01:09:36;98257.09;;;4.00;79.95
86299;BME280;76956;50.530;8.312;2024-03-29T01:10:37;98259.44;;;3.97;80.16
86299;BME280;76956;50.530;8.312;2024-03-29T01:11:39;98250.47;;;4.01;80.14
86299;BME280;76956;50.530;8.312;2024-03-29T01:12:39;98252.38;;;4.04;80.18
86299;BME280;76956;50.530;8.312;2024-03-29T01:13:41;98246.16;;;4.07;80.40
86299;BME280;76956;50.530;8.312;2024-03-29T01:14:42;98244.66;;;4.02;79.99
86299;BME280;76956;50.530;8.312;2024-03-29T01:15:43;98240.81;;;3.96;80.34
86299;BME280;76956;50.530;8.312;2024-03-29T01:16:43;98243.88;;;4.02;80.60
86299;BME280;76956;50.530;8.312;2024-03-29T01:17:44;98243.09;;;4.01;80.59
86299;BME280;76956;50.530;8.312;2024-03-29T01:18:45;98241.50;;;4.07;80.89
86299;BME280;76956;50.530;8.312;2024-03-29T01:19:46;98243.09;;;4.05;80.79
86299;BME280;76956;50.530;8.312;2024-03-29T01:20:47;98245.03;;;4.01;80.73
86299;BME280;76956;50.530;8.312;2024-03-29T01:21:48;98243.09;;;4.01;80.70
86299;BME280;76956;50.530;8.312;2024-03-29T01:22:48;98246.97;;;4.04;81.19
86299;BME280;76956;50.530;8.312;2024-03-29T01:23:49;98231.81;;;4.06;80.90
86299;BME280;76956;50.530;8.312;2024-03-29T01:24:50;98227.16;;;4.10;81.58
86299;BME280;76956;50.530;8.312;2024-03-29T01:25:51;98225.94;;;4.15;81.23
86299;BME280;76956;50.530;8.312;2024-03-29T01:26:51;98216.22;;;4.17;80.96
86299;BME280;76956;50.530;8.312;2024-03-29T01:27:52;98216.22;;;4.17;80.91
86299;BME280;76956;50.530;8.312;2024-03-29T01:28:53;98216.97;;;4.18;80.83
86299;BME280;76956;50.530;8.312;2024-03-29T01:29:54;98215.78;;;4.19;81.14
86299;BME280;76956;50.530;8.312;2024-03-29T01:30:55;98216.97;;;4.18;81.03
86299;BME280;76956;50.530;8.312;2024-03-29T01:31:59;98214.19;;;4.25;80.55
86299;BME280;76956;50.530;8.312;2024-03-29T01:32:59;98221.84;;;4.33;80.35
86299;BME280;76956;50.530;8.312;2024-03-29T01:34:09;98221.03;;;4.36;80.12
86299;BME280;76956;50.530;8.312;2024-03-29T01:35:10;98217.88;;;4.41;80.48
86299;BME280;76956;50.530;8.312;2024-03-29T01:36:11;98217.53;;;4.39;79.82
86299;BME280;76956;50.530;8.312;2024-03-29T01:37:12;98221.75;;;4.40;79.97
86299;BME280;76956;50.530;8.312;2024-03-29T01:38:14;98219.03;;;4.40;80.80
86299;BME280;76956;50.530;8.312;2024-03-29T01:39:15;98222.16;;;4.39;81.10
86299;BME280;76956;50.530;8.312;2024-03-29T01:40:19;98220.97;;;4.40;80.90
86299;BME280;76956;50.530;8.312;2024-03-29T01:41:20;98217.09;;;4.41;80.87
86299;BME280;76956;50.530;8.312;2024-03-29T01:42:20;98224.81;;;4.46;80.49
86299;BME280;76956;50.530;8.312;2024-03-29T01:43:21;98208.44;;;4.53;80.75
86299;BME280;76956;50.530;8.312;2024-03-29T01:44:22;98210.28;;;4.59;80.31
86299;BME280;76956;50.530;8.312;2024-03-29T01:45:23;98213.72;;;4.63;79.64
86299;BME280;76956;50.530;8.312;2024-03-29T01:46:23;98221.09;;;4.67;80.16
86299;BME280;76956;50.530;8.312;2024-03-29T01:47:24;98215.25;;;4.64;79.72
86299;BME280;76956;50.530;8.312;2024-03-29T01:48:26;98226.97;;;4.61;80.58
86299;BME280;76956;50.530;8.312;2024-03-29T01:49:27;98225.00;;;4.62;80.79
86299;BME280;76956;50.530;8.312;2024-03-29T01:50:28;98230.06;;;4.60;80.52
86299;BME280;76956;50.530;8.312;2024-03-29T01:51:29;98219.19;;;4.60;80.52
86299;BME280;76956;50.530;8.312;2024-03-29T01:52:30;98220.00;;;4.57;81.29
86299;BME280;76956;50.530;8.312;2024-03-29T01:53:31;98221.97;;;4.56;81.16
86299;BME280;76956;50.530;8.312;2024-03-29T01:54:32;98218.47;;;4.56;80.97
86299;BME280;76956;50.530;8.312;2024-03-29T01:55:33;98220.00;;;4.57;80.17
86299;BME280;76956;50.530;8.312;2024-03-29T01:56:35;98211.81;;;4.60;79.86
86299;BME280;76956;50.530;8.312;2024-03-29T01:57:35;98198.97;;;4.64;80.88
86299;BME280;76956;50.530;8.312;2024-03-29T01:58:38;98196.19;;;4.72;80.64
86299;BME280;76956;50.530;8.312;2024-03-29T01:59:42;98199.19;;;4.77;80.74
86299;BME280;76956;50.530;8.312;2024-03-29T02:00:52;98193.38;;;4.79;79.80
86299;BME280;76956;50.530;8.312;2024-03-29T02:01:54;98178.53;;;4.83;79.19
86299;BME280;76956;50.530;8.312;2024-03-29T02:02:55;98179.25;;;4.87;78.97
86299;BME280;76956;50.530;8.312;2024-03-29T02:04:01;98172.59;;;4.92;78.89
86299;BME280;76956;50.530;8.312;2024-03-29T02:05:03;98168.28;;;4.94;79.11
86299;BME280;76956;50.530;8.312;2024-03-29T02:06:06;98180.75;;;4.92;79.16
86299;BME280;76956;50.530;8.312;2024-03-29T02:07:07;98173.03;;;4.87;79.64
86299;BME280;76956;50.530;8.312;2024-03-29T02:08:10;98180.84;;;4.85;79.60
86299;BME280;76956;50.530;8.312;2024-03-29T02:09:11;98176.97;;;4.86;79.38
86299;BME280;76956;50.530;8.312;2024-03-29T02:10:12;98181.63;;;4.85;79.69
86299;BME280;76956;50.530;8.312;2024-03-29T02:11:13;98176.19;;;4.85;79.55
86299;BME280;76956;50.530;8.312;2024-03-29T02:12:14;98173.44;;;4.89;79.42
86299;BME280;76956;50.530;8.312;2024-03-29T02:13:15;98171.88;;;4.88;80.13
86299;BME280;76956;50.530;8.312;2024-03-29T02:14:15;98169.59;;;4.86;79.45
86299;BME280;76956;50.530;8.312;2024-03-29T02:15:16;98171.56;;;4.82;79.54
86299;BME280;76956;50.530;8.312;2024-03-29T02:16:17;98164.59;;;4.81;79.32
86299;BME280;76956;50.530;8.312;2024-03-29T02:17:18;98162.63;;;4.82;79.20
86299;BME280;76956;50.530;8.312;2024-03-29T02:18:18;98166.03;;;4.89;79.42
86299;BME280;76956;50.530;8.312;2024-03-29T02:19:19;98157.06;;;4.92;78.71
86299;BME280;76956;50.530;8.312;2024-03-29T02:20:20;98158.97;;;4.95;78.63
86299;BME280;76956;50.530;8.312;2024-03-29T02:21:21;98151.16;;;4.97;78.78
86299;BME280;76956;50.530;8.312;2024-03-29T02:22:23;98151.59;;;4.96;78.67
86299;BME280;76956;50.530;8.312;2024-03-29T02:23:29;98143.78;;;4.98;78.88
86299;BME280;76956;50.530;8.312;2024-03-29T02:24:30;98144.94;;;4.97;78.83
86299;BME280;76956;50.530;8.312;2024-03-29T02:25:31;98140.34;;;4.94;78.93
86299;BME280;76956;50.530;8.312;2024-03-29T02:26:33;98145.03;;;4.93;78.94
86299;BME280;76956;50.530;8.312;2024-03-29T02:27:37;98147.75;;;4.93;79.16
86299;BME280;76956;50.530;8.312;2024-03-29T02:28:38;98143.81;;;4.94;79.18
86299;BME280;76956;50.530;8.312;2024-03-29T02:29:39;98146.97;;;4.93;79.21
86299;BME280;76956;50.530;8.312;2024-03-29T02:30:39;98141.16;;;4.91;79.48
86299;BME280;76956;50.530;8.312;2024-03-29T02:31:40;98134.59;;;4.88;79.67
86299;BME280;76956;50.530;8.312;2024-03-29T02:32:41;98144.75;;;4.84;79.41
86299;BME280;76956;50.530;8.312;2024-03-29T02:33:42;98143.22;;;4.83;79.74
86299;BME280;76956;50.530;8.312;2024-03-29T02:34:43;98144.34;;;4.86;79.60
86299;BME280;76956;50.530;8.312;2024-03-29T02:35:44;98142.00;;;4.88;79.36
86299;BME280;76956;50.530;8.312;2024-03-29T02:36:44;98151.31;;;4.87;79.40
86299;BME280;76956;50.530;8.312;2024-03-29T02:37:46;98148.19;;;4.88;79.72
86299;BME280;76956;50.530;8.312;2024-03-29T02:38:46;98159.06;;;4.88;79.57
86299;BME280;76956;50.530;8.312;2024-03-29T02:39:47;98150.44;;;4.93;79.29
86299;BME280;76956;50.530;8.312;2024-03-29T02:40:48;98152.75;;;4.95;79.06
86299;BME280;76956;50.530;8.312;2024-03-29T02:41:49;98148.44;;;4.97;78.96
86299;BME280;76956;50.530;8.312;2024-03-29T02:42:50;98153.41;;;5.02;78.90
86299;BME280;76956;50.530;8.312;2024-03-29T02:43:50;98155.72;;;5.04;78.85
86299;BME280;76956;50.530;8.312;2024-03-29T02:44:51;98165.84;;;5.03;79.73
86299;BME280;76956;50.530;8.312;2024-03-29T02:45:53;98160.41;;;5.03;79.10
86299;BME280;76956;50.530;8.312;2024-03-29T02:46:53;98158.50;;;5.00;79.11
86299;BME280;76956;50.530;8.312;2024-03-29T02:47:54;98163.59;;;4.98;79.10
86299;BME280;76956;50.530;8.312;2024-03-29T02:48:55;98172.09;;;5.00;79.44
86299;BME280;76956;50.530;8.312;2024-03-29T02:49:56;98178.34;;;4.97;79.62
86299;BME280;76956;50.530;8.312;2024-03-29T02:50:56;98178.00;;;4.95;80.04
86299;BME280;76956;50.530;8.312;2024-03-29T02:51:57;98170.66;;;4.92;80.24
86299;BME280;76956;50.530;8.312;2024-03-29T02:52:58;98167.16;;;4.92;80.59
86299;BME280;76956;50.530;8.312;2024-03-29T02:53:59;98170.66;;;4.92;80.03
86299;BME280;76956;50.530;8.312;2024-03-29T02:54:59;98159.41;;;4.90;80.56
86299;BME280;76956;50.530;8.312;2024-03-29T02:56:00;98163.72;;;4.88;80.96
86299;BME280;76956;50.530;8.312;2024-03-29T02:57:01;98167.69;;;4.83;81.32
86299;BME280;76956;50.530;8.312;2024-03-29T02:58:01;98164.97;;;4.83;81.81
86299;BME280;76956;50.530;8.312;2024-03-29T02:59:02;98177.78;;;4.83;81.06
86299;BME280;76956;50.530;8.312;2024-03-29T03:00:06;98176.22;;;4.82;81.05
86299;BME280;76956;50.530;8.312;2024-03-29T03:01:10;98183.25;;;4.79;80.51
86299;BME280;76956;50.530;8.312;2024-03-29T03:02:11;98177.00;;;4.82;81.39
86299;BME280;76956;50.530;8.312;2024-03-29T03:03:15;98181.25;;;4.83;80.64
86299;BME280;76956;50.530;8.312;2024-03-29T03:04:17;98181.25;;;4.83;80.90
86299;BME280;76956;50.530;8.312;2024-03-29T03:05:17;98181.63;;;4.85;80.74
86299;BME280;76956;50.530;8.312;2024-03-29T03:06:18;98181.63;;;4.85;81.19
86299;BME280;76956;50.530;8.312;2024-03-29T03:07:19;98181.31;;;4.80;81.44
86299;BME280;76956;50.530;8.312;2024-03-29T03:08:39;98181.25;;;4.83;80.83
86299;BME280;76956;50.530;8.312;2024-03-29T03:09:58;98175.81;;;4.83;80.84
86299;BME280;76956;50.530;8.312;2024-03-29T03:11:17;98169.28;;;4.77;80.66
86299;BME280;76956;50.530;8.312;2024-03-29T03:12:18;98168.22;;;4.71;81.40
86299;BME280;76956;50.530;8.312;2024-03-29T03:13:19;98176.31;;;4.75;81.51
86299;BME280;76956;50.530;8.312;2024-03-29T03:14:19;98172.44;;;4.76;81.20
86299;BME280;76956;50.530;8.312;2024-03-29T03:15:20;98164.22;;;4.79;80.80
86299;BME280;76956;50.530;8.312;2024-03-29T03:16:21;98157.97;;;4.82;81.22
86299;BME280;76956;50.530;8.312;2024-03-29T03:17:22;98166.47;;;4.84;80.97
86299;BME280;76956;50.530;8.312;2024-03-29T03:18:22;98159.88;;;4.85;81.08
86299;BME280;76956;50.530;8.312;2024-03-29T03:19:23;98164.50;;;4.88;80.87
86299;BME280;76956;50.530;8.312;2024-03-29T03:20:24;98163.31;;;4.89;81.40
86299;BME280;76956;50.530;8.312;2024-03-29T03:21:30;98169.47;;;4.93;80.85
86299;BME280;76956;50.530;8.312;2024-03-29T03:22:31;98166.34;;;4.95;81.19
86299;BME280;76956;50.530;8.312;2024-03-29T03:23:32;98167.13;;;4.95;81.28
86299;BME280;76956;50.530;8.312;2024-03-29T03:24:33;98165.91;;;4.96;81.96
86299;BME280;76956;50.530;8.312;2024-03-29T03:25:34;98162.81;;;4.98;81.17
86299;BME280;76956;50.530;8.312;2024-03-29T03:26:34;98154.22;;;4.99;81.41
86299;BME280;76956;50.530;8.312;2024-03-29T03:27:35;98150.34;;;5.00;80.79
86299;BME280;76956;50.530;8.312;2024-03-29T03:28:36;98172.81;;;5.04;80.21
86299;BME280;76956;50.530;8.312;2024-03-29T03:29:37;98171.94;;;5.11;80.17
86299;BME280;76956;50.530;8.312;2024-03-29T03:30:41;98168.00;;;5.15;80.02
86299;BME280;76956;50.530;8.312;2024-03-29T03:31:41;98157.13;;;5.15;79.81
86299;BME280;76956;50.530;8.312;2024-03-29T03:32:42;98160.53;;;5.19;79.67
86299;BME280;76956;50.530;8.312;2024-03-29T03:33:43;98160.84;;;5.25;80.41
86299;BME280;76956;50.530;8.312;2024-03-29T03:34:44;98150.75;;;5.25;80.27
86299;BME280;76956;50.530;8.312;2024-03-29T03:35:45;98154.69;;;5.21;80.01
86299;BME280;76956;50.530;8.312;2024-03-29T03:36:46;98152.03;;;5.17;80.70
86299;BME280;76956;50.530;8.312;2024-03-29T03:37:46;98147.84;;;5.13;81.51
86299;BME280;76956;50.530;8.312;2024-03-29T03:38:47;98133.50;;;5.09;81.87
86299;BME280;76956;50.530;8.312;2024-03-29T03:39:48;98137.34;;;5.11;81.46
86299;BME280;76956;50.530;8.312;2024-03-29T03:40:49;98137.72;;;5.13;81.38
86299;BME280;76956;50.530;8.312;2024-03-29T03:41:49;98138.56;;;5.10;81.52
86299;BME280;76956;50.530;8.312;2024-03-29T03:42:50;98145.50;;;5.11;81.83
86299;BME280;76956;50.530;8.312;2024-03-29T03:43:51;98141.63;;;5.12;81.95
86299;BME280;76956;50.530;8.312;2024-03-29T03:44:52;98141.63;;;5.12;82.09
86299;BME280;76956;50.530;8.312;2024-03-29T03:45:53;98146.25;;;5.15;82.37
86299;BME280;76956;50.530;8.312;2024-03-29T03:46:53;98144.22;;;5.19;82.05
86299;BME280;76956;50.530;8.312;2024-03-29T03:47:54;98138.44;;;5.17;82.32
86299;BME280;76956;50.530;8.312;2024-03-29T03:48:55;98147.06;;;5.12;82.35
86299;BME280;76956;50.530;8.312;2024-03-29T03:49:56;98145.50;;;5.11;81.87
86299;BME280;76956;50.530;8.312;2024-03-29T03:50:56;98141.63;;;5.12;82.60
86299;BME280;76956;50.530;8.312;2024-03-29T03:51:57;98140.50;;;5.10;81.73
86299;BME280;76956;50.530;8.312;2024-03-29T03:52:58;98135.81;;;5.10;81.73
86299;BME280;76956;50.530;8.312;2024-03-29T03:53:59;98145.16;;;5.09;82.59
86299;BME280;76956;50.530;8.312;2024-03-29T03:55:00;98143.97;;;5.10;82.55
86299;BME280;76956;50.530;8.312;2024-03-29T03:56:00;98141.25;;;5.10;82.94
86299;BME280;76956;50.530;8.312;2024-03-29T03:57:01;98149.00;;;5.12;82.75
86299;BME280;76956;50.530;8.312;2024-03-29T03:58:02;98141.63;;;5.12;82.81
86299;BME280;76956;50.530;8.312;2024-03-29T03:59:03;98144.28;;;5.16;82.60
86299;BME280;76956;50.530;8.312;2024-03-29T04:00:04;98143.91;;;5.14;82.08
86299;BME280;76956;50.530;8.312;2024-03-29T04:01:12;98144.22;;;5.19;82.37
86299;BME280;76956;50.530;8.312;2024-03-29T04:02:13;98139.22;;;5.18;82.56
86299;BME280;76956;50.530;8.312;2024-03-29T04:03:14;98140.72;;;5.19;83.38
86299;BME280;76956;50.530;8.312;2024-03-29T04:04:14;98139.56;;;5.20;83.07
86299;BME280;76956;50.530;8.312;2024-03-29T04:05:17;98142.66;;;5.18;83.20
86299;BME280;76956;50.530;8.312;2024-03-29T04:06:18;98140.69;;;5.22;83.18
86299;BME280;76956;50.530;8.312;2024-03-29T04:07:18;98142.97;;;5.24;83.67
86299;BME280;76956;50.530;8.312;2024-03-29T04:08:19;98140.63;;;5.26;83.19
86299;BME280;76956;50.530;8.312;2024-03-29T04:09:20;98149.19;;;5.24;83.40
86299;BME280;76956;50.530;8.312;2024-03-29T04:10:21;98150.00;;;5.21;83.74
86299;BME280;76956;50.530;8.312;2024-03-29T04:11:21;98151.22;;;5.20;84.37
86299;BME280;76956;50.530;8.312;2024-03-29T04:12:22;98148.88;;;5.19;84.07
86299;BME280;76956;50.530;8.312;2024-03-29T04:13:23;98146.94;;;5.19;84.33
86299;BME280;76956;50.530;8.312;2024-03-29T04:14:24;98152.44;;;5.16;84.10
86299;BME280;76956;50.530;8.312;2024-03-29T04:15:24;98156.28;;;5.18;84.62
86299;BME280;76956;50.530;8.312;2024-03-29T04:16:25;98151.69;;;5.15;85.50
86299;BME280;76956;50.530;8.312;2024-03-29T04:17:26;98144.66;;;5.18;84.60
86299;BME280;76956;50.530;8.312;2024-03-29T04:18:27;98150.47;;;5.16;84.68
86299;BME280;76956;50.530;8.312;2024-03-29T04:19:28;98136.06;;;5.19;85.38
86299;BME280;76956;50.530;8.312;2024-03-29T04:20:28;98142.66;;;5.18;84.58
86299;BME280;76956;50.530;8.312;2024-03-29T04:21:29;98145.03;;;5.16;85.73
86299;BME280;76956;50.530;8.312;2024-03-29T04:22:30;98137.34;;;5.11;85.12
86299;BME280;76956;50.530;8.312;2024-03-29T04:23:31;98143.56;;;5.12;85.16
86299;BME280;76956;50.530;8.312;2024-03-29T04:24:32;98137.78;;;5.10;84.88
86299;BME280;76956;50.530;8.312;2024-03-29T04:25:33;98143.97;;;5.10;85.33
86299;BME280;76956;50.530;8.312;2024-03-29T04:26:33;98146.34;;;5.08;85.89
86299;BME280;76956;50.530;8.312;2024-03-29T04:27:34;98148.66;;;5.10;84.97
86299;BME280;76956;50.530;8.312;2024-03-29T04:28:35;98145.50;;;5.11;85.22
86299;BME280;76956;50.530;8.312;2024-03-29T04:29:36;98150.66;;;5.06;85.29
86299;BME280;76956;50.530;8.312;2024-03-29T04:30:36;98137.00;;;5.09;85.36
86299;BME280;76956;50.530;8.312;2024-03-29T04:31:37;98141.63;;;5.12;85.12
86299;BME280;76956;50.530;8.312;2024-03-29T04:32:38;98136.97;;;5.13;85.22
86299;BME280;76956;50.530;8.312;2024-03-29T04:33:39;98149.00;;;5.12;85.12
86299;BME280;76956;50.530;8.312;2024-03-29T04:34:39;98152.53;;;5.09;85.83
86299;BME280;76956;50.530;8.312;2024-03-29T04:35:40;98146.72;;;5.10;85.05
86299;BME280;76956;50.530;8.312;2024-03-29T04:36:41;98147.06;;;5.12;85.50
86299;BME280;76956;50.530;8.312;2024-03-29T04:37:42;98139.25;;;5.14;85.63
86299;BME280;76956;50.530;8.312;2024-03-29T04:38:42;98142.31;;;5.16;85.76
86299;BME280;76956;50.530;8.312;2024-03-29T04:39:45;98146.28;;;5.12;86.47
86299;BME280;76956;50.530;8.312;2024-03-29T04:40:47;98141.63;;;5.12;85.16
86299;BME280;76956;50.530;8.312;2024-03-29T04:41:48;98149.31;;;5.17;85.04
86299;BME280;76956;50.530;8.312;2024-03-29T04:42:49;98145.03;;;5.16;84.92
86299;BME280;76956;50.530;8.312;2024-03-29T04:43:50;98148.19;;;5.15;85.89
86299;BME280;76956;50.530;8.312;2024-03-29T04:44:51;98138.00;;;5.19;85.79
86299;BME280;76956;50.530;8.312;2024-03-29T04:46:11;98139.97;;;5.18;85.78
86299;BME280;76956;50.530;8.312;2024-03-29T04:47:12;98134.91;;;5.20;85.74
86299;BME280;76956;50.530;8.312;2024-03-29T04:48:14;98144.22;;;5.19;85.37
86299;BME280;76956;50.530;8.312;2024-03-29T04:49:15;98136.03;;;5.23;85.20
86299;BME280;76956;50.530;8.312;2024-03-29T04:50:18;98128.22;;;5.25;85.18
86299;BME280;76956;50.530;8.312;2024-03-29T04:51:18;98130.94;;;5.25;85.21
86299;BME280;76956;50.530;8.312;2024-03-29T04:52:19;98134.44;;;5.25;84.54
86299;BME280;76956;50.530;8.312;2024-03-29T04:53:20;98133.66;;;5.25;84.94
86299;BME280;76956;50.530;8.312;2024-03-29T04:54:21;98121.66;;;5.22;85.12
86299;BME280;76956;50.530;8.312;2024-03-29T04:55:22;98120.47;;;5.23;85.61
86299;BME280;76956;50.530;8.312;2024-03-29T04:56:23;98127.09;;;5.22;85.60
86299;BME280;76956;50.530;8.312;2024-03-29T04:57:23;98126.66;;;5.24;86.01
86299;BME280;76956;50.530;8.312;2024-03-29T04:58:25;98106.03;;;5.26;86.10
86299;BME280;76956;50.530;8.312;2024-03-29T04:59:26;98106.81;;;5.27;86.05
86299;BME280;76956;50.530;8.312;2024-03-29T05:00:27;98102.53;;;5.26;85.93
86299;BME280;76956;50.530;8.312;2024-03-29T05:01:28;98109.53;;;5.27;85.96
86299;BME280;76956;50.530;8.312;2024-03-29T05:02:28;98102.97;;;5.24;85.62
86299;BME280;76956;50.530;8.312;2024-03-29T05:03:29;98103.78;;;5.21;86.71
86299;BME280;76956;50.530;8.312;2024-03-29T05:04:30;98101.06;;;5.21;86.83
86299;BME280;76956;50.530;8.312;2024-03-29T05:05:31;98104.91;;;5.24;86.33
86299;BME280;76956;50.530;8.312;2024-03-29T05:06:31;98102.97;;;5.24;86.42
86299;BME280;76956;50.530;8.312;2024-03-29T05:07:32;98097.84;;;5.30;86.19
86299;BME280;76956;50.530;8.312;2024-03-29T05:08:33;98097.75;;;5.34;85.77
86299;BME280;76956;50.530;8.312;2024-03-29T05:09:34;98100.84;;;5.36;85.51
86299;BME280;76956;50.530;8.312;2024-03-29T05:10:35;98102.31;;;5.40;85.52
86299;BME280;76956;50.530;8.312;2024-03-29T05:11:36;98094.56;;;5.39;85.58
86299;BME280;76956;50.530;8.312;2024-03-29T05:12:37;98102.72;;;5.39;85.58
86299;BME280;76956;50.530;8.312;2024-03-29T05:13:38;98110.19;;;5.35;86.29
86299;BME280;76956;50.530;8.312;2024-03-29T05:14:39;98109.41;;;5.34;86.11
86299;BME280;76956;50.530;8.312;2024-03-29T05:15:40;98115.63;;;5.35;86.33
86299;BME280;76956;50.530;8.312;2024-03-29T05:16:41;98117.91;;;5.36;86.01
86299;BME280;76956;50.530;8.312;2024-03-29T05:17:41;98117.66;;;5.31;86.57
86299;BME280;76956;50.530;8.312;2024-03-29T05:18:42;98113.34;;;5.33;86.47
86299;BME280;76956;50.530;8.312;2024-03-29T05:19:43;98113.25;;;5.37;85.95
86299;BME280;76956;50.530;8.312;2024-03-29T05:20:44;98119.38;;;5.41;86.21
86299;BME280;76956;50.530;8.312;2024-03-29T05:21:49;98126.81;;;5.40;86.40
86299;BME280;76956;50.530;8.312;2024-03-29T05:22:50;98128.75;;;5.40;86.27
86299;BME280;76956;50.530;8.312;2024-03-29T05:23:51;98124.84;;;5.41;86.29
86299;BME280;76956;50.530;8.312;2024-03-29T05:24:55;98145.06;;;5.40;86.41
86299;BME280;76956;50.530;8.312;2024-03-29T05:25:55;98144.72;;;5.38;86.59
86299;BME280;76956;50.530;8.312;2024-03-29T05:26:56;98147.44;;;5.38;87.12
86299;BME280;76956;50.530;8.312;2024-03-29T05:27:57;98140.03;;;5.38;86.59
86299;BME280;76956;50.530;8.312;2024-03-29T05:28:58;98141.56;;;5.39;86.74